Weather at Heath Canyon Airport [CLOSED]

Public forecast

Using degrees Fahrenheit for public forecast. Weather courtesy of forecast.io.

Closest aviation weather report (METAR) to Heath Canyon Airport

Closest report is Terrell County Airport, 48.2 nm (89.3 km) NE.

2024/03/01 00:51 (retrieved 41 minutes ago)

K6R6 010051Z AUTO 10003KT 12/04 A3011 RMK AO1 SLP190 T01170039

Closest aviation forecast (TAF) to Heath Canyon Airport

Forecast is more than 6 hours old.

Closest forecast is Piedras Negras International Airport, 130.4 nm (241.4 km) ESE.

2024/02/29 18:24 (retrieved 7 hours ago)

TAF MMPG 291721Z 2918/0118 12010KT P6SM SKC FM010300 00000KT P6SM SKC FM011500 12010KT P6SM SKC